Impacts METAR Board INFO
IDs:

KPDX - Portland Intl Arpt, OR, US

Updated at: 0504 UTC 16 Dec 2017
Potential Impact None Slight Moderate High
Time15/17Z 15/18Z 15/19Z 15/20Z 15/21Z 15/22Z 15/23Z 16/00Z 16/01Z 16/02Z 16/03Z 16/04Z 16/05Z
VIS10 10 10 10 9 10 10 10 10 9 8 6 9
CIG46 35 33 30 27 24 21 21 85 90 45 41 31
CoverOVCOVCOVCOVCOVCOVCOVCBKNBKNBKNOVCBKNOVC
FltCatVFRVFRVFRMVFRMVFRMVFRMVFRMVFRVFRVFRVFRVFRVFR
WX---------------------RABR-RA
WDir011017000505016011011013000
WSpd0 9 5 0 0 4 4 3 5 5 3 0 0
WGst-- -- -- -- -- -- -- -- -- -- -- -- --
Raw hourly METARs
KPDX 151653Z 00000KT 10SM OVC046 03/M02 A3031 RMK AO2 SLP263 T00331017
KPDX 151753Z 11009KT 10SM BKN035 OVC050 03/M01 A3031 RMK AO2 SLP262 T00281011 10033 20000 50016
KPDX 151853Z 17005KT 10SM BKN033 OVC050 03/M01 A3030 RMK AO2 SLP259 T00331011
KPDX 151953Z 00000KT 10SM OVC030 04/M01 A3028 RMK AO2 SLP254 T00391011
KPDX 152053Z 00000KT 9SM OVC027 04/M01 A3028 RMK AO2 SLP253 T00391011 56008
KPDX 152200Z 05004KT 10SM BKN024 OVC034 04/M01 A3027 RMK AO2 T00441006
KPDX 152253Z 05004KT 10SM OVC021 04/01 A3028 RMK AO2 SLP253 T00440006
KPDX 152353Z 16003KT 10SM BKN021 BKN055 BKN080 04/01 A3029 RMK AO2 RAB2257E12 SLP256 P0000 60000 T00390011 10044 20033 53003
KPDX 160053Z 11005KT 10SM FEW023 FEW055 BKN085 BKN190 03/01 A3029 RMK AO2 SLP258 T00280011
KPDX 160153Z 11005KT 9SM FEW029 FEW048 BKN090 03/02 A3030 RMK AO2 SLP260 T00280017
KPDX 160253Z 13003KT 8SM -RA FEW033 BKN045 OVC080 04/02 A3033 RMK AO2 RAB40 SLP269 P0000 60000 T00390022 53012
KPDX 160353Z 00000KT 6SM BR SCT031 BKN041 BKN100 02/01 A3034 RMK AO2 RAE01 SLP272 P0000 T00220011
KPDX 160453Z 00000KT 9SM -RA BKN031 BKN045 OVC060 03/01 A3034 RMK AO2 RAB43 SLP273 P0000 T00280011